Time;durP1;ratioP1;P1;durP2;ratioP2;P2;SDS_P1;SDS_P2;PMS_P1;PMS_P2;Temp;Humidity;BMP_temperature;BMP_pressure;BME280_temperature;BME280_humidity;BME280_pressure;Samples;Min_cycle;Max_cycle;Signal;HPM_P1;HPM_P2
2021/10/10 00:01:37;;;;;;;6.20;4.53;;;22.40;49.90;;;;;;6269274;23;20156;-81
2021/10/10 00:04:09;;;;;;;4.60;4.10;;;22.50;50.00;;;;;;6242308;23;20385;-81
2021/10/10 00:06:35;;;;;;;6.50;4.90;;;22.40;49.90;;;;;;6269031;23;20143;-81
2021/10/10 00:09:03;;;;;;;4.90;4.50;;;22.50;50.00;;;;;;6242118;23;20381;-82
2021/10/10 00:11:29;;;;;;;4.97;4.20;;;22.40;49.90;;;;;;6268385;23;20856;-81
2021/10/10 00:13:55;;;;;;;5.10;4.30;;;22.40;49.90;;;;;;6242261;23;20373;-81
2021/10/10 00:16:25;;;;;;;5.33;4.83;;;22.40;49.90;;;;;;6242234;23;20411;-81
2021/10/10 00:18:53;;;;;;;5.03;4.53;;;22.40;49.90;;;;;;6241994;23;20450;-81
2021/10/10 00:21:20;;;;;;;4.80;4.37;;;22.40;49.90;;;;;;6242881;23;20373;-81
2021/10/10 00:23:45;;;;;;;4.93;4.23;;;22.40;49.90;;;;;;6243209;23;20409;-81
2021/10/10 00:26:15;;;;;;;5.50;4.83;;;22.40;49.90;;;;;;6269886;23;20705;-81
2021/10/10 00:28:43;;;;;;;4.50;4.00;;;22.50;50.00;;;;;;6242632;23;20154;-81
2021/10/10 00:31:09;;;;;;;4.50;4.10;;;22.40;49.90;;;;;;6269648;23;20377;-81
2021/10/10 00:33:35;;;;;;;4.40;3.90;;;22.50;50.00;;;;;;6243010;23;20374;-81
2021/10/10 00:36:00;;;;;;;5.97;4.27;;;22.40;50.00;;;;;;6242176;23;20210;-81
2021/10/10 00:38:29;;;;;;;4.70;4.20;;;22.50;50.00;;;;;;6242863;23;20178;-81
2021/10/10 00:40:58;;;;;;;6.33;4.80;;;22.40;49.90;;;;;;6270333;23;20483;-81
2021/10/10 00:43:24;;;;;;;4.80;3.90;;;22.40;50.00;;;;;;6269047;23;20429;-81
2021/10/10 00:45:52;;;;;;;4.50;4.10;;;22.40;50.00;;;;;;6268396;23;20366;-81
2021/10/10 00:48:19;;;;;;;5.63;5.00;;;22.50;50.10;;;;;;6268735;23;20154;-81
2021/10/10 00:50:45;;;;;;;4.70;4.30;;;22.40;50.00;;;;;;6242871;23;20392;-81
2021/10/10 00:53:16;;;;;;;4.10;3.70;;;22.40;49.90;;;;;;6242866;23;20405;-81
2021/10/10 00:55:46;;;;;;;5.00;4.30;;;22.40;50.50;;;;;;6269050;23;20662;-81
2021/10/10 00:58:13;;;;;;;5.57;5.00;;;22.40;50.00;;;;;;6269001;23;20911;-81
2021/10/10 01:01:02;;;;;;;4.40;4.00;;;22.40;50.00;;;;;;6268250;23;20381;-81
2021/10/10 01:03:28;;;;;;;5.07;4.57;;;22.50;50.00;;;;;;6241767;23;20393;-81
2021/10/10 01:05:56;;;;;;;5.90;4.53;;;22.40;50.00;;;;;;6268698;23;20460;-81
2021/10/10 01:08:22;;;;;;;4.33;3.93;;;22.40;50.00;;;;;;6268270;23;20158;-82
2021/10/10 01:10:51;;;;;;;4.27;3.87;;;22.40;50.00;;;;;;6242079;23;20385;-81
2021/10/10 01:13:18;;;;;;;4.57;3.70;;;22.40;50.00;;;;;;6242088;23;20161;-81
2021/10/10 01:15:48;;;;;;;4.20;3.80;;;22.40;50.00;;;;;;6268776;23;20365;-81
2021/10/10 01:18:22;;;;;;;5.03;4.53;;;22.50;50.10;;;;;;6242650;23;20405;-81
2021/10/10 01:20:49;;;;;;;5.77;4.60;;;22.50;50.10;;;;;;6269129;23;20349;-81
2021/10/10 01:23:15;;;;;;;4.50;4.10;;;22.40;50.10;;;;;;6242739;23;20404;-81
2021/10/10 01:25:41;;;;;;;4.90;4.43;;;22.40;50.10;;;;;;6235962;23;20404;-81
2021/10/10 01:28:10;;;;;;;5.20;4.70;;;22.40;50.10;;;;;;6263630;23;20374;-81
2021/10/10 01:30:36;;;;;;;4.80;4.33;;;22.40;50.20;;;;;;6239438;23;20412;-81
2021/10/10 01:33:08;;;;;;;4.70;4.20;;;22.40;50.10;;;;;;6238429;23;20392;-81
2021/10/10 01:35:35;;;;;;;4.50;4.10;;;22.40;50.10;;;;;;6239084;23;20146;-82
2021/10/10 01:38:01;;;;;;;5.23;4.73;;;22.40;50.10;;;;;;6238584;23;20425;-82
2021/10/10 01:40:27;;;;;;;6.07;3.77;;;22.40;50.10;;;;;;6237614;23;20381;-82
2021/10/10 01:42:53;;;;;;;5.57;4.10;;;22.40;50.10;;;;;;6238312;23;20380;-82
2021/10/10 01:45:22;;;;;;;4.50;4.10;;;22.40;50.10;;;;;;6264579;23;20584;-82
2021/10/10 01:47:48;;;;;;;6.20;4.10;;;22.40;50.10;;;;;;6238217;23;20155;-82
2021/10/10 01:50:14;;;;;;;4.43;4.03;;;22.50;50.20;;;;;;6237454;23;20382;-81
2021/10/10 01:52:42;;;;;;;4.63;4.20;;;22.40;50.10;;;;;;6265053;23;20413;-81
2021/10/10 01:55:08;;;;;;;4.77;4.37;;;22.40;50.10;;;;;;6265916;23;20146;-81
2021/10/10 01:57:34;;;;;;;5.27;4.53;;;22.50;50.20;;;;;;6264580;23;20417;-81
2021/10/10 02:00:00;;;;;;;4.87;3.87;;;22.40;50.10;;;;;;6264517;23;20376;-81
2021/10/10 02:02:25;;;;;;;4.50;4.10;;;22.50;50.20;;;;;;6264621;23;20229;-82
2021/10/10 02:04:51;;;;;;;4.97;4.47;;;22.40;50.10;;;;;;6261361;23;20265;-84
2021/10/10 02:07:26;;;;;;;4.30;3.90;;;22.50;50.20;;;;;;6235129;23;20154;-83
2021/10/10 02:09:54;;;;;;;4.77;4.33;;;22.40;50.10;;;;;;6261426;23;20153;-83
2021/10/10 02:12:23;;;;;;;4.60;3.90;;;22.50;50.30;;;;;;6235829;23;20445;-82
2021/10/10 02:14:49;;;;;;;6.20;4.87;;;22.40;50.20;;;;;;6235548;23;20388;-82
2021/10/10 02:17:14;;;;;;;4.53;4.13;;;22.50;50.30;;;;;;6262816;23;20417;-82
2021/10/10 02:19:53;;;;;;;5.83;4.40;;;22.50;50.30;;;;;;6234234;23;20150;-83
2021/10/10 02:22:19;;;;;;;4.90;4.40;;;22.50;50.30;;;;;;6262980;23;20435;-82
2021/10/10 02:24:45;;;;;;;4.07;3.73;;;22.40;50.20;;;;;;6262751;23;20400;-83
2021/10/10 02:27:10;;;;;;;4.73;4.20;;;22.40;50.20;;;;;;6262404;23;20174;-83
2021/10/10 02:29:36;;;;;;;5.10;4.60;;;22.40;50.20;;;;;;6236431;23;20159;-82
2021/10/10 02:32:02;;;;;;;4.43;4.00;;;22.40;50.20;;;;;;6262314;23;20146;-83
2021/10/10 02:34:28;;;;;;;4.37;3.77;;;22.40;50.20;;;;;;6261988;23;20158;-83
2021/10/10 02:36:53;;;;;;;4.33;3.93;;;22.40;50.20;;;;;;6262643;23;20170;-83
2021/10/10 02:39:19;;;;;;;5.10;4.60;;;22.40;50.20;;;;;;6262195;23;20135;-84
2021/10/10 02:41:44;;;;;;;6.63;4.33;;;22.50;50.30;;;;;;6235365;23;20202;-84
2021/10/10 02:44:11;;;;;;;4.70;4.20;;;22.40;50.20;;;;;;6234686;23;20233;-83
2021/10/10 02:46:36;;;;;;;5.77;4.80;;;22.40;50.20;;;;;;6262815;23;20221;-83
2021/10/10 02:49:02;;;;;;;4.60;3.43;;;22.50;50.30;;;;;;6261314;23;20368;-84
2021/10/10 02:51:30;;;;;;;4.63;4.13;;;22.40;50.20;;;;;;6236238;23;20150;-84
2021/10/10 02:53:56;;;;;;;4.07;3.70;;;22.40;50.20;;;;;;6235295;23;20431;-83
2021/10/10 02:56:22;;;;;;;4.53;4.10;;;22.40;50.20;;;;;;6235458;23;20409;-83
2021/10/10 02:58:48;;;;;;;5.17;4.67;;;22.40;50.20;;;;;;6261510;23;20420;-84
2021/10/10 03:01:14;;;;;;;4.40;4.00;;;22.50;50.30;;;;;;6262159;23;20139;-83
2021/10/10 03:03:39;;;;;;;4.80;4.37;;;22.40;50.20;;;;;;6234688;23;20172;-83
2021/10/10 03:06:07;;;;;;;4.73;3.97;;;22.40;50.20;;;;;;6235325;23;20711;-83
2021/10/10 03:08:38;;;;;;;4.10;3.60;;;22.40;50.20;;;;;;6235010;23;20162;-84
2021/10/10 03:11:04;;;;;;;5.70;4.13;;;22.40;50.20;;;;;;6261690;23;20360;-84
2021/10/10 03:13:30;;;;;;;4.33;3.73;;;22.40;50.20;;;;;;6261436;23;20401;-83
2021/10/10 03:15:57;;;;;;;4.63;3.53;;;22.40;50.20;;;;;;6235330;23;20378;-84
2021/10/10 03:18:23;;;;;;;4.77;4.33;;;22.40;50.20;;;;;;6261429;23;20175;-84
2021/10/10 03:20:48;;;;;;;4.30;3.90;;;22.40;50.20;;;;;;6235176;23;20373;-84
2021/10/10 03:23:14;;;;;;;4.23;3.80;;;22.40;50.30;;;;;;6260809;23;20369;-82
2021/10/10 03:25:40;;;;;;;4.40;4.00;;;22.40;50.30;;;;;;6232968;23;20181;-83
2021/10/10 03:28:05;;;;;;;4.63;3.63;;;22.40;50.30;;;;;;6259895;23;20147;-82
2021/10/10 03:30:31;;;;;;;5.17;4.10;;;22.40;50.30;;;;;;6260014;23;20578;-82
2021/10/10 03:32:57;;;;;;;4.87;4.30;;;22.40;50.30;;;;;;6232956;23;20155;-83
2021/10/10 03:35:23;;;;;;;3.87;3.47;;;22.40;50.30;;;;;;6259488;23;20178;-83
2021/10/10 03:41:12;;;;;;;4.63;3.83;;;22.40;50.30;;;;;;6259476;23;20141;-82
2021/10/10 03:43:38;;;;;;;4.33;3.93;;;22.40;50.30;;;;;;6232963;23;20381;-83
2021/10/10 03:46:04;;;;;;;4.13;3.83;;;22.40;50.30;;;;;;6232606;23;20380;-83
2021/10/10 03:48:30;;;;;;;3.90;3.50;;;22.40;50.30;;;;;;6259999;23;20370;-82
2021/10/10 03:50:56;;;;;;;5.23;4.30;;;22.40;50.30;;;;;;6259157;23;20490;-82
2021/10/10 03:53:29;;;;;;;3.60;3.30;;;22.40;50.30;;;;;;6234224;23;20185;-82
2021/10/10 03:55:55;;;;;;;4.90;3.90;;;22.40;50.30;;;;;;6260162;23;20127;-82
2021/10/10 03:58:20;;;;;;;3.60;3.30;;;22.40;50.30;;;;;;6232597;23;20420;-82
2021/10/10 04:00:46;;;;;;;4.27;3.97;;;22.40;50.30;;;;;;6232510;23;20234;-82
2021/10/10 04:03:13;;;;;;;4.03;3.50;;;22.40;50.30;;;;;;6259221;23;20162;-82
2021/10/10 04:05:41;;;;;;;4.23;3.80;;;22.40;50.40;;;;;;6233593;23;20177;-82
2021/10/10 04:08:07;;;;;;;4.60;3.77;;;22.40;50.40;;;;;;6233769;23;20396;-82
2021/10/10 04:10:33;;;;;;;4.20;3.80;;;22.40;50.40;;;;;;6234506;23;20397;-82
2021/10/10 04:12:58;;;;;;;4.20;3.37;;;22.40;50.40;;;;;;6234267;23;20187;-82
2021/10/10 04:15:24;;;;;;;4.40;4.00;;;22.40;50.40;;;;;;6233438;23;20154;-82
2021/10/10 04:17:50;;;;;;;4.90;3.97;;;22.40;50.40;;;;;;6233709;23;20182;-82
2021/10/10 04:20:17;;;;;;;3.80;3.50;;;22.40;50.40;;;;;;6260985;23;20143;-82
2021/10/10 04:22:44;;;;;;;3.73;3.20;;;22.30;50.40;;;;;;6234586;23;20150;-82
2021/10/10 04:25:10;;;;;;;4.77;4.10;;;22.40;50.50;;;;;;6260741;23;20847;-83
2021/10/10 04:27:38;;;;;;;3.73;3.43;;;22.30;50.40;;;;;;6260146;23;20373;-82
2021/10/10 04:30:09;;;;;;;3.77;3.47;;;22.40;50.50;;;;;;6233742;23;20437;-82
2021/10/10 04:32:35;;;;;;;4.07;3.70;;;22.30;50.40;;;;;;6261928;23;20754;-82
2021/10/10 04:35:00;;;;;;;3.23;2.93;;;22.30;50.40;;;;;;6233870;23;20381;-82
2021/10/10 04:37:26;;;;;;;4.30;3.90;;;22.40;50.50;;;;;;6233502;23;20436;-82
2021/10/10 04:39:52;;;;;;;4.83;3.50;;;22.30;50.40;;;;;;6234267;23;20158;-83
2021/10/10 04:42:18;;;;;;;4.90;4.40;;;22.30;50.40;;;;;;6232782;23;20241;-82
2021/10/10 04:48:06;;;;;;;4.17;3.73;;;22.40;50.40;;;;;;6260610;23;20164;-82
2021/10/10 04:50:32;;;;;;;4.80;3.93;;;22.30;50.40;;;;;;6260159;23;20445;-82
2021/10/10 04:52:57;;;;;;;5.10;4.60;;;22.40;50.50;;;;;;6234099;23;20381;-82
2021/10/10 04:55:23;;;;;;;3.73;3.33;;;22.40;50.50;;;;;;6260032;23;20142;-83
2021/10/10 04:57:49;;;;;;;4.00;3.60;;;22.40;50.60;;;;;;6260489;23;20170;-82
2021/10/10 05:00:17;;;;;;;3.97;3.30;;;22.40;50.60;;;;;;6260263;23;20222;-82
2021/10/10 05:02:43;;;;;;;3.87;3.47;;;22.40;50.60;;;;;;6260016;23;20220;-82
2021/10/10 05:05:09;;;;;;;3.53;3.20;;;22.40;51.10;;;;;;6233811;23;20460;-82
2021/10/10 05:07:35;;;;;;;4.43;3.47;;;22.40;50.60;;;;;;6233667;23;20164;-82
2021/10/10 05:10:00;;;;;;;3.50;3.20;;;22.40;50.60;;;;;;6262053;23;20369;-83
2021/10/10 05:12:26;;;;;;;4.47;3.90;;;22.40;50.60;;;;;;6237876;23;20596;-83
2021/10/10 05:14:52;;;;;;;3.10;2.80;;;22.40;50.60;;;;;;6237926;23;20162;-82
2021/10/10 05:17:17;;;;;;;3.90;3.50;;;22.40;50.60;;;;;;6263275;23;20166;-82
2021/10/10 05:19:43;;;;;;;3.07;2.73;;;22.40;51.10;;;;;;6237147;23;20150;-83
2021/10/10 05:22:08;;;;;;;3.87;3.47;;;22.40;50.60;;;;;;6264241;23;20142;-83
2021/10/10 05:24:34;;;;;;;3.53;3.20;;;22.40;50.60;;;;;;6237815;23;20147;-83
2021/10/10 05:27:01;;;;;;;3.77;3.37;;;22.50;50.70;;;;;;6263740;23;20127;-83
2021/10/10 05:29:26;;;;;;;3.50;3.20;;;22.40;50.60;;;;;;6264406;23;20220;-83
2021/10/10 05:31:52;;;;;;;3.90;3.50;;;22.50;50.70;;;;;;6237619;23;20441;-83
2021/10/10 05:34:18;;;;;;;3.50;3.20;;;22.50;50.70;;;;;;6236629;23;20158;-83
2021/10/10 05:36:44;;;;;;;3.40;3.10;;;22.50;50.70;;;;;;6264136;23;20142;-82
2021/10/10 05:39:09;;;;;;;3.03;2.83;;;22.50;50.70;;;;;;6264053;23;20205;-82
2021/10/10 05:41:35;;;;;;;3.67;2.87;;;22.50;50.70;;;;;;6263652;23;20193;-82
2021/10/10 05:44:01;;;;;;;3.40;3.10;;;22.50;50.70;;;;;;6265165;23;20201;-82
2021/10/10 05:46:27;;;;;;;3.37;3.07;;;22.50;50.70;;;;;;6237499;23;20154;-82
2021/10/10 05:49:08;;;;;;;3.50;3.20;;;22.50;50.70;;;;;;6213213;23;20392;-83
2021/10/10 05:51:34;;;;;;;4.00;3.60;;;22.50;50.60;;;;;;6237399;23;20161;-82
2021/10/10 05:54:00;;;;;;;4.27;3.30;;;22.50;50.60;;;;;;6263235;23;20693;-82
2021/10/10 05:56:38;;;;;;;;;;;;;;;;;;;;;
2021/10/10 05:59:07;;;;;;;3.53;3.23;;;22.50;50.60;;;;;;6263893;23;20150;-82
2021/10/10 06:01:33;;;;;;;3.70;3.40;;;22.50;50.60;;;;;;6237516;23;20444;-82
2021/10/10 06:03:59;;;;;;;3.33;3.03;;;22.50;50.60;;;;;;6263526;23;20389;-82
2021/10/10 06:06:24;;;;;;;4.73;4.33;;;22.50;50.60;;;;;;6237030;23;20153;-82
2021/10/10 06:08:53;;;;;;;4.43;4.03;;;22.50;50.60;;;;;;6264169;23;20467;-82
2021/10/10 06:11:19;;;;;;;4.20;3.53;;;22.50;50.60;;;;;;6263517;23;20146;-82
2021/10/10 06:13:45;;;;;;;4.03;3.43;;;22.50;50.60;;;;;;6236887;23;20411;-82
2021/10/10 06:16:56;;;;;;;2.93;2.73;;;22.50;50.60;;;;;;6263485;23;20146;-82
2021/10/10 06:19:23;;;;;;;3.30;3.00;;;22.50;50.60;;;;;;6237370;23;20435;-82
2021/10/10 06:21:48;;;;;;;3.13;2.83;;;22.50;50.70;;;;;;6265073;23;20369;-82
2021/10/10 06:24:14;;;;;;;3.60;3.20;;;22.50;50.70;;;;;;6236964;23;20178;-82
2021/10/10 06:26:39;;;;;;;3.10;2.80;;;22.50;50.70;;;;;;6236780;23;20185;-82
2021/10/10 06:29:05;;;;;;;3.80;3.40;;;22.50;50.70;;;;;;6236954;23;20154;-82
2021/10/10 06:31:31;;;;;;;3.40;3.10;;;22.50;50.70;;;;;;6237408;23;20161;-82
2021/10/10 06:33:56;;;;;;;3.40;3.10;;;22.50;50.70;;;;;;6264746;23;20157;-82
2021/10/10 06:36:22;;;;;;;4.10;2.90;;;22.50;50.70;;;;;;6237588;23;20157;-83
2021/10/10 06:38:48;;;;;;;3.93;3.53;;;22.50;50.70;;;;;;6237096;23;20178;-83
2021/10/10 06:41:14;;;;;;;3.40;3.10;;;22.50;50.70;;;;;;6237244;23;20150;-83
2021/10/10 06:43:40;;;;;;;3.30;3.00;;;22.50;50.70;;;;;;6237788;23;20382;-82
2021/10/10 06:46:06;;;;;;;4.70;4.27;;;22.50;50.70;;;;;;6237606;23;20452;-82
2021/10/10 06:48:31;;;;;;;3.90;3.60;;;22.50;50.70;;;;;;6237070;23;20597;-82
2021/10/10 06:50:57;;;;;;;4.97;4.47;;;22.50;50.70;;;;;;6237631;23;20236;-82
2021/10/10 06:53:23;;;;;;;4.60;4.20;;;22.50;50.70;;;;;;6236860;23;20154;-82
2021/10/10 06:55:48;;;;;;;4.50;4.10;;;22.50;50.70;;;;;;6264020;23;20154;-82
2021/10/10 06:58:14;;;;;;;4.20;3.90;;;22.50;50.70;;;;;;6264091;23;20208;-82
2021/10/10 07:00:40;;;;;;;4.43;3.97;;;22.50;50.60;;;;;;6264113;23;20143;-83
2021/10/10 07:03:05;;;;;;;3.97;3.67;;;22.50;50.60;;;;;;6263619;23;20180;-82
2021/10/10 07:05:31;;;;;;;4.00;3.63;;;22.50;50.60;;;;;;6236506;23;20150;-82
2021/10/10 07:07:57;;;;;;;4.30;3.90;;;22.50;50.60;;;;;;6263197;23;20135;-83
2021/10/10 07:10:23;;;;;;;4.23;3.70;;;22.50;50.60;;;;;;6237143;23;20455;-82
2021/10/10 07:12:48;;;;;;;4.70;4.30;;;22.50;50.60;;;;;;6236771;23;20179;-82
2021/10/10 07:15:14;;;;;;;5.30;4.60;;;22.50;50.60;;;;;;6236472;23;20156;-83
2021/10/10 07:17:40;;;;;;;4.90;4.40;;;22.50;50.60;;;;;;6236761;23;20184;-83
2021/10/10 07:20:22;;;;;;;4.17;3.87;;;22.50;50.60;;;;;;6212434;23;20457;-82
2021/10/10 07:23:10;;;;;;;5.80;4.70;;;22.60;50.70;;;;;;6237665;23;20857;-82
2021/10/10 07:25:34;;;;;;;5.17;4.67;;;22.50;50.60;;;;;;6263956;23;20437;-82
2021/10/10 07:27:59;;;;;;;3.83;3.53;;;22.50;50.60;;;;;;6213574;23;20389;-82
2021/10/10 07:30:25;;;;;;;5.27;4.30;;;22.50;50.60;;;;;;6264330;23;20236;-82
2021/10/10 07:32:51;;;;;;;3.80;3.50;;;22.50;50.60;;;;;;6264492;23;20142;-82
2021/10/10 07:35:17;;;;;;;4.40;4.00;;;22.50;50.60;;;;;;6238185;23;20154;-82
2021/10/10 07:37:42;;;;;;;4.97;3.77;;;22.60;50.60;;;;;;6265486;23;20244;-82
2021/10/10 07:40:09;;;;;;;4.17;3.77;;;22.50;50.60;;;;;;6240063;23;20154;-82
2021/10/10 07:42:35;;;;;;;3.90;3.60;;;22.50;50.60;;;;;;6240442;23;20135;-82
2021/10/10 07:45:11;;;;;;;4.40;3.77;;;22.50;50.60;;;;;;6240181;23;20441;-82
2021/10/10 07:50:11;;;;;;;3.73;3.40;;;22.50;50.50;;;;;;6275095;23;20387;-82
2021/10/10 07:52:38;;;;;;;3.50;3.20;;;22.50;50.60;;;;;;6238465;23;20389;-81
2021/10/10 07:55:04;;;;;;;4.00;3.60;;;22.50;50.60;;;;;;6238358;23;20439;-82
2021/10/10 07:57:31;;;;;;;4.60;4.10;;;22.60;50.60;;;;;;6238585;23;20420;-82
2021/10/10 07:59:56;;;;;;;3.90;3.40;;;22.60;50.60;;;;;;6238092;23;20431;-82
2021/10/10 08:02:22;;;;;;;4.00;3.60;;;22.60;50.60;;;;;;6264289;23;20389;-82
2021/10/10 08:04:50;;;;;;;3.17;2.87;;;22.60;50.70;;;;;;6265088;23;20141;-82
2021/10/10 08:07:16;;;;;;;4.27;3.80;;;22.60;50.70;;;;;;6265510;23;20154;-82
2021/10/10 08:09:42;;;;;;;3.73;3.43;;;22.60;50.70;;;;;;6265445;23;20384;-82
2021/10/10 08:12:08;;;;;;;4.10;3.80;;;22.60;50.70;;;;;;6238222;23;20157;-82
2021/10/10 08:14:34;;;;;;;4.07;3.30;;;22.60;50.70;;;;;;6238781;23;20381;-82
2021/10/10 08:17:00;;;;;;;4.30;3.80;;;22.60;50.70;;;;;;6213089;23;20423;-82
2021/10/10 08:19:26;;;;;;;4.00;3.60;;;22.60;50.70;;;;;;6238472;23;20440;-81
2021/10/10 08:21:52;;;;;;;4.40;3.87;;;22.60;50.70;;;;;;6265589;23;20153;-81
2021/10/10 08:24:19;;;;;;;4.07;3.50;;;22.60;50.70;;;;;;6238242;23;20150;-82
2021/10/10 08:26:47;;;;;;;3.80;3.50;;;22.60;50.70;;;;;;6238363;23;20150;-82
2021/10/10 08:29:13;;;;;;;4.63;4.23;;;22.60;50.70;;;;;;6264772;23;20365;-82
2021/10/10 08:31:39;;;;;;;4.43;3.30;;;22.60;50.70;;;;;;6238100;23;20374;-82
2021/10/10 08:34:08;;;;;;;4.63;4.20;;;22.60;50.60;;;;;;6238516;23;20384;-82
2021/10/10 08:36:34;;;;;;;4.20;3.70;;;22.60;50.70;;;;;;6238488;23;20173;-82
2021/10/10 08:39:00;;;;;;;5.47;3.87;;;22.60;50.70;;;;;;6238134;23;20983;-82
2021/10/10 08:41:32;;;;;;;4.63;4.03;;;22.60;50.60;;;;;;6235787;23;20165;-82
2021/10/10 08:44:07;;;;;;;4.60;3.80;;;22.60;50.60;;;;;;6240442;23;20154;-82
2021/10/10 08:46:38;;;;;;;8.00;4.47;;;22.70;50.70;;;;;;6240668;23;20377;-82
2021/10/10 08:49:04;;;;;;;4.67;3.97;;;22.60;50.60;;;;;;6241221;23;20368;-82
2021/10/10 08:51:34;;;;;;;5.30;4.80;;;22.60;50.70;;;;;;6238248;23;20385;-82
2021/10/10 08:54:03;;;;;;;9.10;6.20;;;22.60;50.70;;;;;;6262956;23;20198;-82
2021/10/10 08:56:31;;;;;;;8.10;6.20;;;22.60;50.50;;;;;;6236358;23;20385;-82
2021/10/10 08:58:58;;;;;;;6.60;5.90;;;22.60;50.50;;;;;;6235848;23;20424;-82
2021/10/10 09:01:32;;;;;;;7.67;6.87;;;22.60;50.40;;;;;;6236044;23;20377;-82
2021/10/10 09:03:58;;;;;;;10.63;6.60;;;22.60;50.40;;;;;;6235214;23;20428;-82
2021/10/10 09:06:24;;;;;;;8.13;6.60;;;22.50;50.20;;;;;;6261480;23;20373;-82
2021/10/10 09:08:53;;;;;;;9.27;6.80;;;22.50;50.10;;;;;;6264459;23;20381;-83
2021/10/10 09:11:19;;;;;;;7.33;6.37;;;22.50;49.90;;;;;;6237431;23;20409;-83
2021/10/10 09:13:48;;;;;;;7.10;5.83;;;22.50;49.80;;;;;;6238623;23;20389;-83
2021/10/10 09:16:14;;;;;;;6.50;5.90;;;22.50;49.70;;;;;;6265047;23;20149;-83
2021/10/10 09:18:42;;;;;;;7.30;5.60;;;22.50;49.80;;;;;;6237058;23;20431;-82
2021/10/10 09:21:27;;;;;;;6.03;5.40;;;22.50;49.80;;;;;;6236884;23;20405;-82
2021/10/10 09:23:56;;;;;;;11.40;6.17;;;22.50;49.90;;;;;;6237561;23;20404;-82
2021/10/10 09:26:42;;;;;;;6.30;5.33;;;22.50;50.00;;;;;;6264874;23;20437;-82
2021/10/10 09:29:33;;;;;;;7.60;5.97;;;22.50;50.00;;;;;;6264052;23;20346;-83
2021/10/10 09:32:19;;;;;;;5.33;4.80;;;22.50;50.00;;;;;;6264230;23;20353;-83
2021/10/10 09:34:47;;;;;;;5.97;5.30;;;22.50;50.10;;;;;;6237770;23;20457;-83
2021/10/10 09:37:21;;;;;;;7.03;6.33;;;22.50;50.10;;;;;;6236352;23;20953;-83
2021/10/10 09:42:43;;;;;;;7.53;4.67;;;22.50;50.00;;;;;;6273868;23;20373;-83
2021/10/10 09:45:21;;;;;;;5.57;4.97;;;22.50;50.10;;;;;;6262564;23;20357;-83
2021/10/10 09:47:52;;;;;;;5.90;4.73;;;22.50;50.10;;;;;;6263048;23;20361;-83
2021/10/10 09:50:18;;;;;;;4.80;4.20;;;22.50;50.10;;;;;;6236652;23;20372;-83
2021/10/10 09:52:44;;;;;;;5.13;4.63;;;22.50;50.10;;;;;;6236288;23;20457;-83
2021/10/10 09:55:11;;;;;;;5.07;4.30;;;22.50;50.10;;;;;;6235774;23;20409;-83
2021/10/10 09:57:53;;;;;;;5.27;4.77;;;22.60;50.20;;;;;;6236178;23;20423;-82
2021/10/10 10:00:21;;;;;;;6.27;4.13;;;22.60;50.10;;;;;;6236887;23;20385;-83
2021/10/10 10:02:48;;;;;;;5.13;4.37;;;22.60;50.20;;;;;;6262330;23;20453;-83
2021/10/10 10:05:29;;;;;;;6.17;5.67;;;22.60;50.20;;;;;;6236935;23;20385;-83
2021/10/10 10:07:59;;;;;;;5.40;4.87;;;22.60;50.20;;;;;;6236734;23;20387;-83
2021/10/10 10:10:26;;;;;;;4.60;4.20;;;22.60;50.20;;;;;;6237404;23;20389;-83
2021/10/10 10:12:59;;;;;;;4.90;4.20;;;22.60;50.20;;;;;;6262995;23;20374;-83
2021/10/10 10:15:38;;;;;;;5.73;4.47;;;22.60;50.20;;;;;;6235761;23;20369;-84
2021/10/10 10:18:04;;;;;;;5.27;4.00;;;22.60;50.20;;;;;;6263884;23;20409;-84
2021/10/10 10:20:30;;;;;;;4.77;4.27;;;22.60;50.30;;;;;;6263746;23;20394;-83
2021/10/10 10:22:57;;;;;;;5.00;4.50;;;22.60;50.30;;;;;;6236484;23;20866;-83
2021/10/10 10:25:25;;;;;;;4.43;3.90;;;22.60;50.20;;;;;;6263058;23;20154;-84
2021/10/10 10:27:53;;;;;;;4.90;4.40;;;22.60;50.20;;;;;;6235801;23;20392;-83
2021/10/10 10:30:21;;;;;;;5.07;4.53;;;22.70;50.30;;;;;;6237443;23;20381;-84
2021/10/10 10:32:47;;;;;;;4.83;4.33;;;22.60;50.20;;;;;;6263230;23;20373;-83
2021/10/10 10:35:15;;;;;;;5.27;4.77;;;22.60;50.30;;;;;;6263601;23;20393;-83
2021/10/10 10:37:44;;;;;;;5.07;4.57;;;22.70;50.30;;;;;;6236493;23;20421;-83
2021/10/10 10:40:16;;;;;;;5.93;4.80;;;22.70;50.30;;;;;;6236293;23;20385;-83
2021/10/10 10:42:52;;;;;;;5.43;4.00;;;22.70;50.40;;;;;;6236440;23;20409;-84
2021/10/10 10:45:29;;;;;;;5.50;4.37;;;22.70;50.40;;;;;;6236174;23;20368;-83
2021/10/10 10:47:59;;;;;;;6.00;4.20;;;22.70;50.40;;;;;;6236093;23;20689;-84
2021/10/10 10:50:40;;;;;;;5.03;4.53;;;22.70;50.40;;;;;;6235811;23;20385;-84
2021/10/10 10:53:09;;;;;;;4.87;4.30;;;22.70;50.40;;;;;;6236874;23;20870;-83
2021/10/10 10:55:40;;;;;;;4.43;4.00;;;22.70;50.40;;;;;;6262990;23;20430;-83
2021/10/10 10:58:05;;;;;;;4.67;4.17;;;22.70;50.50;;;;;;6261947;23;20480;-84
2021/10/10 11:00:43;;;;;;;4.30;3.90;;;22.60;50.40;;;;;;6263361;23;20783;-84
2021/10/10 11:03:22;;;;;;;4.43;4.03;;;22.70;50.40;;;;;;6262103;23;20486;-84
2021/10/10 11:05:49;;;;;;;5.67;3.93;;;22.70;50.40;;;;;;6263755;23;20869;-84
2021/10/10 11:08:25;;;;;;;3.80;3.50;;;22.60;50.40;;;;;;6263891;23;20377;-84
2021/10/10 11:11:00;;;;;;;4.30;3.90;;;22.70;50.50;;;;;;6263087;23;20360;-84
2021/10/10 11:13:33;;;;;;;4.03;3.63;;;22.70;50.50;;;;;;6263097;23;20373;-84
2021/10/10 11:16:48;;;;;;;5.80;4.20;;;22.70;50.40;;;;;;6235102;23;20459;-84
2021/10/10 11:19:13;;;;;;;7.60;4.43;;;22.70;50.40;;;;;;6261469;23;20405;-84
2021/10/10 11:21:44;;;;;;;4.47;3.87;;;22.70;50.40;;;;;;6235635;23;20392;-84
2021/10/10 11:24:21;;;;;;;5.17;4.37;;;22.70;50.40;;;;;;6236036;23;20398;-84
2021/10/10 11:26:52;;;;;;;6.20;3.77;;;22.70;50.40;;;;;;6262713;23;20353;-84
2021/10/10 11:29:20;;;;;;;4.30;3.90;;;22.70;50.40;;;;;;6262354;23;20354;-84
2021/10/10 11:31:47;;;;;;;4.83;4.00;;;22.70;50.50;;;;;;6236617;23;20476;-83
2021/10/10 11:34:23;;;;;;;4.67;4.23;;;22.70;50.50;;;;;;6236423;23;20373;-83
2021/10/10 11:36:54;;;;;;;4.30;3.90;;;22.70;50.50;;;;;;6263173;23;20369;-83
2021/10/10 11:39:28;;;;;;;6.97;4.67;;;22.70;50.40;;;;;;6236914;23;20393;-82
2021/10/10 11:42:06;;;;;;;4.10;3.70;;;22.70;50.50;;;;;;6238622;23;20456;-83
2021/10/10 11:44:40;;;;;;;6.60;4.67;;;22.70;50.50;;;;;;6239319;23;20468;-83
2021/10/10 11:47:16;;;;;;;4.30;3.90;;;22.70;50.50;;;;;;6237516;23;20365;-83
2021/10/10 11:49:44;;;;;;;4.87;4.10;;;22.70;50.40;;;;;;6264580;23;20368;-83
2021/10/10 11:58:51;;;;;;;4.33;3.70;;;22.70;50.50;;;;;;6267315;23;20419;-81
2021/10/10 12:01:20;;;;;;;4.80;4.40;;;22.60;50.40;;;;;;6240219;23;20380;-81
2021/10/10 12:03:48;;;;;;;4.97;4.47;;;22.60;50.30;;;;;;6265833;23;20413;-81
2021/10/10 12:06:21;;;;;;;5.20;4.70;;;22.60;50.40;;;;;;6240729;23;20465;-81
2021/10/10 12:09:04;;;;;;;5.03;4.37;;;22.60;50.30;;;;;;6266198;23;20377;-80
2021/10/10 12:11:30;;;;;;;4.80;3.80;;;22.60;50.20;;;;;;6240288;23;20454;-81
2021/10/10 12:13:56;;;;;;;4.57;4.17;;;22.60;50.30;;;;;;6266507;23;20361;-82
2021/10/10 12:16:22;;;;;;;7.17;5.13;;;22.60;50.20;;;;;;6265824;23;20154;-82
2021/10/10 12:18:58;;;;;;;5.23;4.50;;;22.60;50.20;;;;;;6239948;23;20202;-81
2021/10/10 12:21:42;;;;;;;5.10;4.13;;;22.60;50.10;;;;;;6264804;23;20369;-82
2021/10/10 12:24:19;;;;;;;4.93;4.43;;;22.60;50.10;;;;;;6240204;23;20434;-82
2021/10/10 12:26:55;;;;;;;4.33;3.93;;;22.60;50.20;;;;;;6241482;23;20170;-82
2021/10/10 12:29:28;;;;;;;5.57;3.90;;;22.60;50.10;;;;;;6268550;23;20372;-84
2021/10/10 12:32:15;;;;;;;5.70;4.80;;;22.60;50.10;;;;;;6237798;23;20377;-83
2021/10/10 12:34:43;;;;;;;5.20;4.60;;;22.60;50.00;;;;;;6264686;23;20393;-84
2021/10/10 12:37:21;;;;;;;4.20;3.80;;;22.60;50.00;;;;;;6264828;23;20447;-84
2021/10/10 12:39:48;;;;;;;5.90;4.57;;;22.60;50.00;;;;;;6264163;23;20373;-84
2021/10/10 12:42:43;;;;;;;4.70;4.20;;;22.60;50.00;;;;;;6237921;23;20392;-84
2021/10/10 12:45:21;;;;;;;5.17;4.40;;;22.60;50.00;;;;;;6240364;23;20382;-82
2021/10/10 12:48:06;;;;;;;6.73;4.17;;;22.50;49.80;;;;;;6241425;23;20407;-80
2021/10/10 12:50:57;;;;;;;5.03;4.20;;;22.50;49.80;;;;;;6242665;23;20445;-82
2021/10/10 12:56:28;;;;;;;4.90;4.20;;;22.50;49.70;;;;;;6247529;23;20372;-82
2021/10/10 12:58:57;;;;;;;5.80;5.20;;;22.50;49.70;;;;;;6242648;23;20444;-81
2021/10/10 13:01:31;;;;;;;4.93;3.90;;;22.50;49.50;;;;;;6269288;23;20366;-82
2021/10/10 13:04:03;;;;;;;5.10;3.70;;;22.50;49.50;;;;;;6241824;23;20408;-81
2021/10/10 13:06:34;;;;;;;4.90;4.10;;;22.50;49.40;;;;;;6241800;23;20377;-81
2021/10/10 13:09:15;;;;;;;7.30;4.10;;;22.50;49.50;;;;;;6241544;23;20783;-81
2021/10/10 13:11:44;;;;;;;5.10;4.53;;;22.50;49.50;;;;;;6241326;23;20377;-82
2021/10/10 13:14:10;;;;;;;4.43;3.70;;;22.50;49.60;;;;;;6268178;23;20376;-82
2021/10/10 13:16:42;;;;;;;5.20;4.23;;;22.50;49.60;;;;;;6241596;23;20404;-82
2021/10/10 13:19:08;;;;;;;4.63;3.70;;;22.50;49.70;;;;;;6241302;23;20431;-82